This is the latest recevied weather packets stored in our database for station/object YT6PT-8. If no packets are shown the sender has not sent any weather packets the latest 10 day(s).
| Time | Temp. | Humidity | Pressure | Rain* | Wind** | Luminosity | Snow |
|---|---|---|---|---|---|---|---|
| 1788015333 | 18.33° C | 94% | 1009 hPa | 1.52 mm | 4.47 m/s, 338° | - | - |
| 1788015038 | 18.33° C | 93% | 1009.1 hPa | 1.52 mm | 4.47 m/s, 338° | - | - |
| 1788014733 | 18.33° C | 93% | 1009.1 hPa | 1.52 mm | 4.47 m/s, 338° | - | - |
| 1788014456 | 18.33° C | 96% | 1009.1 hPa | 1.52 mm | 5.36 m/s, 315° | - | - |
| 1788014150 | 18.33° C | 96% | 1009.1 hPa | 1.52 mm | 5.36 m/s, 315° | - | - |
| 1788013839 | 18.33° C | 97% | 1009.5 hPa | 1.52 mm | 3.13 m/s, 338° | - | - |
| 1788013533 | 18.33° C | 97% | 1009.5 hPa | 1.52 mm | 3.13 m/s, 338° | - | - |
| 1788013233 | 18.33° C | 96% | 1009.5 hPa | 1.52 mm | 6.71 m/s, 315° | - | - |
| 1788012933 | 18.33° C | 96% | 1009.5 hPa | 1.52 mm | 6.71 m/s, 315° | - | - |
| 1788012634 | 20° C | 94% | 1009.5 hPa | 0.51 mm | 8.49 m/s, 315° | - | - |
| 1788012333 | 20° C | 94% | 1009.5 hPa | 0.51 mm | 8.49 m/s, 315° | - | - |
| 1788012035 | 22.78° C | 76% | 1008.7 hPa | 0 mm | 9.39 m/s, 338° | - | - |
| 1788011733 | 22.78° C | 76% | 1008.7 hPa | 0 mm | 9.39 m/s, 338° | - | - |
| 1788011439 | 25° C | 64% | 1007.8 hPa | 0 mm | 4.92 m/s, 315° | - | - |
| 1788011133 | 25° C | 64% | 1007.8 hPa | 0 mm | 4.92 m/s, 315° | - | - |
| 1788010854 | 25.56° C | 60% | 1007.8 hPa | 0 mm | 3.13 m/s, 22° | - | - |
| 1788010551 | 25.56° C | 60% | 1007.8 hPa | 0 mm | 3.13 m/s, 22° | - | - |
| 1788010234 | 26.11° C | 59% | 1007.9 hPa | 0 mm | 2.24 m/s, 338° | - | - |
| 1788009932 | 26.11° C | 59% | 1007.9 hPa | 0 mm | 2.24 m/s, 338° | - | - |
| 1788009639 | 26.11° C | 59% | 1007.9 hPa | 0 mm | 0.45 m/s, 22° | - | - |
| 1788009333 | 26.11° C | 59% | 1007.9 hPa | 0 mm | 0.45 m/s, 22° | - | - |
| 1788009039 | 26.11° C | 58% | 1007.9 hPa | 0 mm | 1.79 m/s, 68° | - | - |
| 1788008733 | 26.11° C | 58% | 1007.9 hPa | 0 mm | 1.79 m/s, 68° | - | - |
| 1788008439 | 26.67° C | 57% | 1008.1 hPa | 0 mm | 0.89 m/s, 45° | - | - |
| 1788008133 | 26.67° C | 57% | 1008.1 hPa | 0 mm | 0.89 m/s, 45° | - | - |
* Rain latest hour (hover to see other rain measurements)
** Current wind speed in m/s (hover to see current wind gust speed)